LIRA Airport Information

Runway Information
Runway 15 Length 7242 ft width 154 ft
Elevation 341 ft Threshold 0 ft Heading 153
Runway 33 Length 7242 ft Width 154 ft
Elevation 427 ft Threshold 0 ft Heading 333
Airport Frequencies
Type ARR Name ROMA ARR Frequency 119.2 MHZ
Type CLD Name CLNC DEL Frequency 119.4 MHZ
Type DIR Name ROMA DIREC Frequency 119.2 MHZ
Type GND Name GND Frequency 121.75 MHZ
Type TWR Name TWR Frequency 120.5 MHZ
Airport Navaids
Type NDB Name Ciampino Frequency 412 KHZ
Type VOR-DME Name Roma Frequency 110800 KHZ
Airport Weather Information & NOTAM
ADDS - METARS form results

(0956 UTC 17 October 2021)
Data provider http://aviationweather.gov/metar/data/
 
METAR text: LIRA 170950Z 03004KT 360V070 9999 SCT030 17/10 Q1019
Conditions at: LIRA (CIAMPINO(IT-AFB/, IT) observed 0950 UTC 17 October 2021
Temperature: 17.0°C (63°F)
Dewpoint: 10.0°C (50°F) [RH = 63%]
Pressure (altimeter): 30.09 inches Hg (1019.0 mb)
Winds: from the NNE (30 degrees) at 5 MPH (4 knots; 2.1 m/s)
Visibility: 6 or more miles (10+ km)
Ceiling: at least 12,000 feet AGL
Clouds: scattered clouds at 3000 feet AGL
Weather: no significant weather observed at this time

METAR text: LIRA 170920Z 03004KT 340V070 9999 FEW030 SCT070 17/10 Q1019
Conditions at: LIRA (CIAMPINO(IT-AFB/, IT) observed 0920 UTC 17 October 2021
Temperature: 17.0°C (63°F)
Dewpoint: 10.0°C (50°F) [RH = 63%]
Pressure (altimeter): 30.09 inches Hg (1019.0 mb)
Winds: from the NNE (30 degrees) at 5 MPH (4 knots; 2.1 m/s)
Visibility: 6 or more miles (10+ km)
Ceiling: at least 12,000 feet AGL
Clouds: few clouds at 3000 feet AGL
scattered clouds at 7000 feet AGL
Weather: no significant weather observed at this time

Forecast for: LIRA (CIAMPINO(IT-AFB/, IT)
Text: TAF LIRA 170500Z 1706/1806 VRB05KT 9999 SCT040
Forecast period: 0600 UTC 17 October 2021 to 0600 UTC 18 October 2021
Forecast type: FROM: standard forecast or significant change
Winds: variable direction winds at 6 MPH (5 knots; 2.6 m/s)
Visibility: 6 or more miles (10+ km)
Ceiling: at least 12,000 feet AGL
Clouds: scattered clouds at 4000 feet AGL
Weather: no significant weather forecast for this period